createdAt,value
2022-11-21T00:00:58.801Z,4.63
2022-11-21T00:03:25.384Z,4.41
2022-11-21T00:05:51.847Z,4.62
2022-11-21T00:08:20.800Z,4.61
2022-11-21T00:10:47.492Z,4.62
2022-11-21T00:13:19.435Z,4.61
2022-11-21T00:15:46.943Z,4.61
2022-11-21T00:18:13.524Z,4.62
2022-11-21T00:20:40.967Z,4.60
2022-11-21T00:23:07.856Z,4.62
2022-11-21T00:25:34.695Z,4.60
2022-11-21T00:28:01.174Z,4.61
2022-11-21T00:30:28.268Z,4.61
2022-11-21T00:32:54.757Z,4.62
2022-11-21T00:35:21.410Z,4.66
2022-11-21T00:37:48.900Z,4.67
2022-11-21T00:40:15.699Z,4.56
2022-11-21T00:42:42.505Z,4.65
2022-11-21T00:45:09.465Z,4.69
2022-11-21T00:47:35.914Z,4.68
2022-11-21T00:50:02.394Z,4.70
2022-11-21T00:52:28.893Z,4.70
2022-11-21T00:54:55.548Z,4.69
2022-11-21T00:57:22.130Z,4.71
2022-11-21T00:59:48.581Z,4.60
2022-11-21T01:02:15.013Z,4.69
2022-11-21T01:04:41.582Z,4.72
2022-11-21T01:07:08.129Z,4.77
2022-11-21T01:09:34.658Z,4.78
2022-11-21T01:12:01.160Z,4.75
2022-11-21T01:14:28.056Z,4.78
2022-11-21T01:16:54.632Z,4.76
2022-11-21T01:19:21.106Z,4.75
2022-11-21T01:21:47.601Z,4.79
2022-11-21T01:24:14.097Z,4.59
2022-11-21T01:26:41.056Z,4.80
2022-11-21T01:29:08.807Z,4.79
2022-11-21T01:31:35.820Z,4.79
2022-11-21T01:34:02.358Z,4.70
2022-11-21T01:36:31.396Z,4.82
2022-11-21T01:39:00.867Z,4.81
2022-11-21T01:41:34.019Z,4.81
2022-11-21T01:44:01.989Z,4.81
2022-11-21T01:46:28.853Z,4.80
2022-11-21T01:49:04.249Z,4.80
2022-11-21T01:52:01.277Z,4.77
2022-11-21T01:54:33.773Z,4.68
2022-11-21T01:57:12.123Z,4.79
2022-11-21T01:59:47.601Z,4.79
2022-11-21T02:02:17.400Z,4.78
2022-11-21T02:04:44.661Z,4.76
2022-11-21T02:07:13.065Z,4.78
2022-11-21T02:09:42.883Z,4.76
2022-11-21T02:12:33.970Z,4.78
2022-11-21T02:15:01.677Z,4.79
2022-11-21T02:17:31.354Z,4.76
2022-11-21T02:20:00.713Z,4.79
2022-11-21T02:23:04.590Z,4.81
2022-11-21T02:25:34.125Z,4.81
2022-11-21T02:28:09.811Z,4.80
2022-11-21T02:30:38.937Z,4.67
2022-11-21T02:33:06.570Z,4.65
2022-11-21T02:35:33.883Z,4.73
2022-11-21T02:38:03.442Z,4.77
2022-11-21T02:40:34.697Z,4.72
2022-11-21T02:43:09.651Z,4.74
2022-11-21T02:45:40.320Z,4.63
2022-11-21T02:48:07.534Z,4.75
2022-11-21T02:50:39.108Z,4.71
2022-11-21T02:53:08.398Z,4.73
2022-11-21T02:55:35.199Z,4.72
2022-11-21T02:58:05.167Z,4.69
2022-11-21T03:00:32.870Z,4.60
2022-11-21T03:02:59.316Z,4.69
2022-11-21T03:05:25.958Z,4.70
2022-11-21T03:07:52.414Z,4.68
2022-11-21T03:10:19.024Z,4.68
2022-11-21T03:12:45.491Z,4.67
2022-11-21T03:15:14.404Z,4.65
2022-11-21T03:17:41.456Z,4.63
2022-11-21T03:20:09.045Z,4.56
2022-11-21T03:22:35.707Z,4.59
2022-11-21T03:25:02.192Z,4.52
2022-11-21T03:27:28.671Z,4.50
2022-11-21T03:29:55.125Z,4.51
2022-11-21T03:32:21.639Z,4.47
2022-11-21T03:34:48.081Z,4.44
2022-11-21T03:37:14.547Z,4.38
2022-11-21T03:39:40.980Z,4.34
2022-11-21T03:42:07.460Z,4.33
2022-11-21T03:44:33.908Z,4.26
2022-11-21T03:47:00.343Z,4.22
2022-11-21T03:49:26.796Z,4.18
2022-11-21T03:51:53.281Z,3.95
2022-11-21T03:54:19.715Z,4.11
2022-11-21T03:56:46.258Z,4.09
2022-11-21T03:59:12.727Z,4.06
2022-11-21T04:01:39.305Z,4.00
2022-11-21T04:04:05.942Z,4.00
2022-11-21T04:06:32.443Z,3.99
2022-11-21T04:08:59.019Z,3.99
2022-11-21T04:11:25.537Z,3.98
2022-11-21T04:13:52.752Z,3.95
2022-11-21T04:16:19.460Z,3.96
2022-11-21T04:18:46.272Z,3.92
2022-11-21T04:21:12.796Z,3.91
2022-11-21T04:23:39.297Z,3.88
2022-11-21T04:26:05.773Z,3.83
2022-11-21T04:28:32.234Z,3.82
2022-11-21T04:31:10.363Z,3.78
2022-11-21T04:33:38.791Z,3.74
2022-11-21T04:36:06.335Z,3.74
2022-11-21T04:38:32.786Z,3.67
2022-11-21T04:40:59.249Z,3.66
2022-11-21T04:43:25.753Z,3.62
2022-11-21T04:45:52.287Z,3.63
2022-11-21T04:48:18.780Z,3.61
2022-11-21T04:50:45.901Z,3.59
2022-11-21T04:53:12.530Z,3.58
2022-11-21T04:55:39.266Z,3.58
2022-11-21T04:58:05.736Z,3.54
2022-11-21T05:00:32.261Z,3.55
2022-11-21T05:03:03.761Z,3.54
2022-11-21T05:05:30.304Z,3.54
2022-11-21T05:07:57.285Z,3.54
2022-11-21T05:10:23.947Z,3.52
2022-11-21T05:13:18.719Z,3.32
2022-11-21T05:15:45.734Z,3.50
2022-11-21T05:18:12.730Z,3.50
2022-11-21T05:20:39.240Z,3.49
2022-11-21T05:23:06.030Z,3.49
2022-11-21T05:25:32.537Z,3.50
2022-11-21T05:27:59.029Z,3.51
2022-11-21T05:30:25.540Z,3.53
2022-11-21T05:32:52.077Z,3.53
2022-11-21T05:35:18.813Z,3.49
2022-11-21T05:37:45.342Z,3.54
2022-11-21T05:40:12.108Z,3.58
2022-11-21T05:43:01.066Z,3.77
2022-11-21T05:45:27.595Z,3.84
2022-11-21T05:47:54.083Z,3.91
2022-11-21T05:50:20.552Z,3.95
2022-11-21T05:52:47.117Z,3.98
2022-11-21T05:55:13.711Z,4.01
2022-11-21T05:57:40.151Z,3.83
2022-11-21T06:00:07.237Z,4.06
2022-11-21T06:02:52.202Z,4.00
2022-11-21T06:05:18.664Z,4.07
2022-11-21T06:07:45.357Z,4.10
2022-11-21T06:10:11.914Z,4.10
2022-11-21T06:12:38.356Z,4.16
2022-11-21T06:15:05.030Z,4.16
2022-11-21T06:17:32.506Z,4.22
2022-11-21T06:19:58.975Z,4.25
2022-11-21T06:22:25.474Z,4.31
2022-11-21T06:24:51.916Z,4.37
2022-11-21T06:27:18.415Z,4.40
2022-11-21T06:29:44.900Z,4.47
2022-11-21T06:32:11.603Z,4.52
2022-11-21T06:34:38.189Z,4.58
2022-11-21T06:37:04.673Z,4.67
2022-11-21T06:39:31.135Z,4.78
2022-11-21T06:41:58.960Z,4.71
2022-11-21T06:44:25.651Z,4.94
2022-11-21T06:46:52.369Z,5.02
2022-11-21T06:49:19.220Z,5.11
2022-11-21T06:51:45.683Z,5.19
2022-11-21T06:54:16.577Z,5.21
2022-11-21T06:56:44.124Z,5.27
2022-11-21T06:59:10.724Z,5.34
2022-11-21T07:01:37.390Z,5.40
2022-11-21T07:04:04.137Z,5.44
2022-11-21T07:06:30.602Z,5.46
2022-11-21T07:11:43.846Z,5.55
2022-11-21T07:14:10.334Z,5.61
2022-11-21T07:16:36.924Z,5.56
2022-11-21T07:19:03.434Z,5.73
2022-11-21T07:21:29.937Z,5.79
2022-11-21T07:23:56.438Z,5.81
2022-11-21T07:26:22.885Z,5.85
2022-11-21T07:28:49.327Z,5.91
2022-11-21T07:31:15.836Z,5.94
2022-11-21T07:33:46.759Z,5.95
2022-11-21T07:36:14.036Z,6.01
2022-11-21T07:38:41.598Z,6.05
2022-11-21T07:41:09.040Z,6.06
2022-11-21T07:43:35.596Z,6.06
2022-11-21T07:46:02.094Z,6.04
2022-11-21T07:48:28.547Z,6.08
2022-11-21T07:50:54.967Z,6.09
2022-11-21T07:53:21.598Z,6.10
2022-11-21T07:55:48.077Z,6.14
2022-11-21T07:58:16.482Z,6.16
2022-11-21T08:00:43.400Z,6.15
2022-11-21T08:03:12.147Z,6.18
2022-11-21T08:05:40.687Z,6.19
2022-11-21T08:08:07.472Z,6.15
2022-11-21T08:10:37.672Z,6.20
2022-11-21T08:13:04.159Z,6.20
2022-11-21T08:15:30.601Z,6.23
2022-11-21T08:17:57.046Z,6.26
2022-11-21T08:20:23.507Z,6.31
2022-11-21T08:22:50.046Z,6.23
2022-11-21T08:25:16.556Z,6.34
2022-11-21T08:27:43.017Z,6.32
2022-11-21T08:30:11.608Z,6.41
2022-11-21T08:32:38.156Z,6.33
2022-11-21T08:35:05.307Z,6.49
2022-11-21T08:37:31.745Z,6.46
2022-11-21T08:40:00.904Z,6.45
2022-11-21T08:42:27.681Z,6.57
2022-11-21T08:44:54.280Z,6.60
2022-11-21T08:47:21.129Z,6.60
2022-11-21T08:49:47.956Z,6.69
2022-11-21T08:52:17.153Z,6.62
2022-11-21T08:54:44.666Z,6.77
2022-11-21T08:57:11.552Z,6.80
2022-11-21T08:59:38.082Z,6.85
2022-11-21T09:02:04.679Z,6.69
2022-11-21T09:04:31.333Z,6.92
2022-11-21T09:06:57.760Z,6.95
2022-11-21T09:09:25.729Z,7.00
2022-11-21T09:11:52.538Z,7.00
2022-11-21T09:14:37.636Z,7.05
2022-11-21T09:17:22.572Z,6.98
2022-11-21T09:19:49.081Z,7.10
2022-11-21T09:22:15.578Z,7.16
2022-11-21T09:24:42.071Z,7.16
2022-11-21T09:27:08.614Z,7.19
2022-11-21T09:29:35.126Z,7.17
2022-11-21T09:32:01.616Z,7.23
2022-11-21T09:34:28.416Z,7.27
2022-11-21T09:36:55.553Z,7.28
2022-11-21T09:39:22.361Z,7.30
2022-11-21T09:41:54.963Z,7.35
2022-11-21T09:44:53.460Z,7.39
2022-11-21T09:47:35.508Z,7.36
2022-11-21T09:50:11.987Z,7.44
2022-11-21T09:53:01.005Z,7.46
2022-11-21T09:55:48.425Z,7.49
2022-11-21T09:58:24.198Z,7.52
2022-11-21T10:00:52.208Z,7.42
2022-11-21T10:03:22.606Z,7.57
2022-11-21T10:06:04.367Z,7.61
2022-11-21T10:08:44.561Z,7.63
2022-11-21T10:11:22.130Z,7.53
2022-11-21T10:14:03.906Z,7.60
2022-11-21T10:16:45.828Z,7.59
2022-11-21T10:19:37.811Z,7.65
2022-11-21T10:22:49.401Z,7.65
2022-11-21T10:25:27.223Z,7.68
2022-11-21T10:28:02.692Z,7.69
2022-11-21T10:30:29.818Z,7.72
2022-11-21T10:33:04.798Z,7.66
2022-11-21T10:35:37.239Z,7.81
2022-11-21T10:38:20.579Z,7.79
2022-11-21T10:41:07.015Z,7.85
2022-11-21T10:44:04.776Z,7.77
2022-11-21T10:46:31.251Z,7.89
2022-11-21T10:49:03.502Z,7.91
2022-11-21T10:51:57.246Z,7.97
2022-11-21T10:54:32.731Z,7.98
2022-11-21T10:57:15.301Z,7.99
2022-11-21T11:00:13.358Z,8.03
2022-11-21T11:02:42.026Z,7.93
2022-11-21T11:05:24.968Z,8.09
2022-11-21T11:08:11.197Z,8.07
2022-11-21T11:10:40.055Z,8.08
2022-11-21T11:13:50.248Z,8.05
2022-11-21T11:16:22.509Z,8.05
2022-11-21T11:19:03.185Z,8.07
2022-11-21T11:21:41.552Z,8.08
2022-11-21T11:24:14.241Z,8.08
2022-11-21T11:26:48.167Z,8.10
2022-11-21T11:29:30.663Z,8.13
2022-11-21T11:32:21.253Z,8.15
2022-11-21T11:34:55.546Z,8.16
2022-11-21T11:37:59.084Z,8.19
2022-11-21T11:40:35.956Z,8.16
2022-11-21T11:43:48.808Z,8.22
2022-11-21T11:47:05.516Z,8.30
2022-11-21T11:50:04.718Z,8.31
2022-11-21T11:52:55.164Z,8.33
2022-11-21T11:55:32.570Z,8.35
2022-11-21T11:58:02.919Z,8.36
2022-11-21T12:00:43.916Z,8.37
2022-11-21T12:03:25.357Z,8.34
2022-11-21T12:05:54.087Z,8.37
2022-11-21T12:08:41.476Z,8.37
2022-11-21T12:11:41.611Z,8.40
2022-11-21T12:14:53.357Z,8.40
2022-11-21T12:17:25.526Z,8.40
2022-11-21T12:19:54.187Z,8.44
2022-11-21T12:22:20.796Z,8.44
2022-11-21T12:24:48.094Z,8.46
2022-11-21T12:27:32.390Z,8.47
2022-11-21T12:30:07.823Z,8.46
2022-11-21T12:32:52.825Z,8.44
2022-11-21T12:35:25.354Z,8.43
2022-11-21T12:38:19.883Z,8.39
2022-11-21T12:41:21.617Z,8.36
2022-11-21T12:43:57.743Z,8.34
2022-11-21T12:46:35.798Z,8.34
2022-11-21T12:49:54.261Z,8.33
2022-11-21T12:52:57.913Z,8.29
2022-11-21T12:55:39.880Z,8.25
2022-11-21T12:58:25.047Z,8.23
2022-11-21T13:01:22.263Z,8.11
2022-11-21T13:03:59.669Z,8.05
2022-11-21T13:06:29.760Z,8.03
2022-11-21T13:08:59.595Z,7.99
2022-11-21T13:12:00.722Z,7.95
2022-11-21T13:14:29.490Z,7.92
2022-11-21T13:17:20.755Z,7.87
2022-11-21T13:19:57.785Z,7.81
2022-11-21T13:22:36.405Z,7.77
2022-11-21T13:25:04.324Z,7.72
2022-11-21T13:27:44.767Z,7.64
2022-11-21T13:30:11.364Z,7.59
2022-11-21T13:32:40.905Z,7.53
2022-11-21T13:35:16.513Z,7.48
2022-11-21T13:38:08.216Z,7.44
2022-11-21T13:40:37.619Z,7.43
2022-11-21T13:45:59.264Z,7.37
2022-11-21T13:48:28.669Z,7.36
2022-11-21T13:51:07.667Z,7.33
2022-11-21T13:54:05.021Z,7.32
2022-11-21T13:56:50.356Z,7.30
2022-11-21T13:59:49.402Z,7.29
2022-11-21T14:02:53.093Z,7.29
2022-11-21T14:05:47.758Z,7.27
2022-11-21T14:08:22.172Z,7.26
2022-11-21T14:10:51.662Z,7.22
2022-11-21T14:13:28.001Z,7.19
2022-11-21T14:16:16.070Z,7.21
2022-11-21T14:18:45.214Z,7.18
2022-11-21T14:21:38.828Z,7.16
2022-11-21T14:24:15.712Z,7.13
2022-11-21T14:26:47.307Z,7.12
2022-11-21T14:29:29.003Z,7.13
2022-11-21T14:31:55.866Z,7.07
2022-11-21T14:34:31.089Z,7.12
2022-11-21T14:37:00.767Z,7.12
2022-11-21T14:39:37.216Z,7.15
2022-11-21T14:42:11.366Z,7.19
2022-11-21T14:44:38.105Z,7.20
2022-11-21T14:47:25.081Z,7.22
2022-11-21T14:49:55.021Z,7.24
2022-11-21T14:52:26.928Z,7.27
2022-11-21T14:57:44.954Z,7.35
2022-11-21T15:00:43.280Z,7.35
2022-11-21T15:03:03.584Z,7.44
2022-11-21T15:11:11.785Z,7.50
2022-11-21T15:13:58.490Z,7.49
2022-11-21T15:16:25.708Z,7.54
2022-11-21T15:18:52.239Z,7.46
2022-11-21T15:21:18.719Z,7.57
2022-11-21T15:23:45.489Z,7.53
2022-11-21T15:26:32.226Z,7.63
2022-11-21T15:29:00.338Z,7.66
2022-11-21T15:31:27.889Z,7.68
2022-11-21T15:36:42.154Z,7.69
2022-11-21T15:39:21.612Z,7.71
2022-11-21T15:41:48.225Z,7.70
2022-11-21T15:44:20.954Z,7.74
2022-11-21T15:46:51.705Z,7.70
2022-11-21T15:52:12.235Z,7.77
2022-11-21T15:54:38.703Z,7.78
2022-11-21T15:57:05.297Z,7.78
2022-11-21T15:57:12.528Z,7.75
2022-11-21T15:57:15.519Z,7.48
2022-11-21T15:59:32.263Z,7.82
2022-11-21T16:01:58.931Z,7.81
2022-11-21T16:04:26.281Z,7.85
2022-11-21T16:06:56.076Z,7.87
2022-11-21T16:09:22.572Z,7.90
2022-11-21T16:11:49.501Z,7.86
2022-11-21T16:14:18.267Z,7.88
2022-11-21T16:16:45.182Z,7.81
2022-11-21T16:19:13.353Z,7.79
2022-11-21T16:21:40.806Z,7.74
2022-11-21T16:24:07.452Z,7.68
2022-11-21T16:26:34.041Z,7.63
2022-11-21T16:29:03.904Z,7.53
2022-11-21T16:31:31.659Z,7.51
2022-11-21T16:33:59.443Z,7.49
2022-11-21T16:36:28.117Z,7.46
2022-11-21T16:38:55.075Z,7.47
2022-11-21T16:41:23.149Z,7.43
2022-11-21T16:43:52.499Z,7.39
2022-11-21T16:46:21.194Z,7.35
2022-11-21T16:48:48.850Z,7.32
2022-11-21T16:51:18.224Z,7.26
2022-11-21T16:53:46.486Z,7.21
2022-11-21T16:56:13.926Z,7.17
2022-11-21T16:58:41.614Z,7.16
2022-11-21T17:01:16.636Z,7.12
2022-11-21T17:03:45.294Z,7.09
2022-11-21T17:06:13.937Z,7.03
2022-11-21T17:08:40.625Z,7.04
2022-11-21T17:11:26.367Z,6.97
2022-11-21T17:13:52.841Z,6.90
2022-11-21T17:16:21.247Z,6.91
2022-11-21T17:18:48.427Z,6.90
2022-11-21T17:21:16.266Z,6.86
2022-11-21T17:23:44.581Z,6.86
2022-11-21T17:26:17.356Z,6.85
2022-11-21T17:28:46.157Z,6.85
2022-11-21T17:31:15.348Z,6.84
2022-11-21T17:33:43.274Z,6.83
2022-11-21T17:36:14.467Z,6.84
2022-11-21T17:38:42.605Z,6.83
2022-11-21T17:41:11.696Z,6.85
2022-11-21T17:43:38.849Z,6.85
2022-11-21T17:46:09.931Z,6.81
2022-11-21T17:48:37.888Z,6.83
2022-11-21T17:51:07.249Z,6.82
2022-11-21T17:53:36.458Z,6.83
2022-11-21T17:56:05.362Z,6.79
2022-11-21T17:58:32.776Z,6.80
2022-11-21T18:01:01.424Z,6.83
2022-11-21T18:03:28.753Z,6.83
2022-11-21T18:06:10.356Z,6.82
2022-11-21T18:08:42.003Z,6.84
2022-11-21T18:11:10.429Z,6.84
2022-11-21T18:13:37.349Z,6.83
2022-11-21T18:16:07.197Z,6.82
2022-11-21T18:18:35.090Z,6.78
2022-11-21T18:21:13.796Z,6.84
2022-11-21T18:23:40.446Z,6.82
2022-11-21T18:26:11.590Z,6.82
2022-11-21T18:28:38.421Z,6.79
2022-11-21T18:31:13.455Z,6.79
2022-11-21T18:33:41.508Z,6.74
2022-11-21T18:36:10.331Z,6.78
2022-11-21T18:38:48.757Z,6.73
2022-11-21T18:41:21.998Z,6.63
2022-11-21T18:43:53.757Z,6.63
2022-11-21T18:46:21.638Z,6.58
2022-11-21T18:49:07.475Z,6.52
2022-11-21T18:51:35.996Z,6.47
2022-11-21T18:54:08.332Z,6.38
2022-11-21T18:56:36.479Z,6.35
2022-11-21T18:59:05.418Z,6.28
2022-11-21T19:01:33.086Z,6.17
2022-11-21T19:03:59.791Z,6.19
2022-11-21T19:06:27.419Z,6.15
2022-11-21T19:08:56.076Z,6.12
2022-11-21T19:11:24.761Z,6.05
2022-11-21T19:13:52.630Z,6.01
2022-11-21T19:16:21.754Z,5.97
2022-11-21T19:19:11.660Z,5.90
2022-11-21T19:21:39.829Z,5.86
2022-11-21T19:24:07.219Z,5.83
2022-11-21T19:26:33.939Z,5.78
2022-11-21T19:29:00.779Z,5.69
2022-11-21T19:31:27.366Z,5.73
2022-11-21T19:33:53.934Z,5.61
2022-11-21T19:36:22.274Z,5.66
2022-11-21T19:38:51.528Z,5.58
2022-11-21T19:41:21.010Z,5.61
2022-11-21T19:43:50.115Z,5.55
2022-11-21T19:46:19.354Z,5.57
2022-11-21T19:48:50.398Z,5.57
2022-11-21T19:51:18.177Z,5.54
2022-11-21T19:53:44.776Z,5.46
2022-11-21T19:56:19.463Z,5.47
2022-11-21T19:58:47.281Z,5.41
2022-11-21T20:01:16.447Z,5.37
2022-11-21T20:03:45.341Z,5.41
2022-11-21T20:06:18.261Z,5.40
2022-11-21T20:08:49.299Z,5.36
2022-11-21T20:11:16.742Z,5.34
2022-11-21T20:13:45.226Z,5.32
2022-11-21T20:16:27.040Z,5.30
2022-11-21T20:18:57.707Z,5.27
2022-11-21T20:21:24.929Z,5.28
2022-11-21T20:23:52.376Z,5.27
2022-11-21T20:26:20.926Z,5.18
2022-11-21T20:28:48.667Z,5.26
2022-11-21T20:31:18.182Z,5.14
2022-11-21T20:33:47.571Z,5.19
2022-11-21T20:36:22.062Z,5.11
2022-11-21T20:39:12.833Z,5.06
2022-11-21T20:41:39.930Z,5.16
2022-11-21T20:46:55.505Z,5.09
2022-11-21T20:49:22.543Z,5.03
2022-11-21T20:54:36.217Z,5.10
2022-11-21T20:57:02.705Z,5.10
2022-11-21T20:59:29.630Z,5.06
2022-11-21T21:01:56.368Z,5.05
2022-11-21T21:04:22.931Z,5.08
2022-11-21T21:06:49.353Z,5.05
2022-11-21T21:09:15.903Z,4.90
2022-11-21T21:11:52.075Z,4.96
2022-11-21T21:14:19.488Z,4.98
2022-11-21T21:16:46.057Z,4.98
2022-11-21T21:19:12.654Z,4.89
2022-11-21T21:21:41.397Z,4.90
2022-11-21T21:24:10.097Z,4.92
2022-11-21T21:26:43.597Z,4.91
2022-11-21T21:29:16.521Z,4.91
2022-11-21T21:31:49.856Z,4.84
2022-11-21T21:34:17.808Z,4.78
2022-11-21T21:36:44.679Z,4.82
2022-11-21T21:39:11.240Z,4.73
2022-11-21T21:41:40.029Z,4.77
2022-11-21T21:44:07.116Z,4.67
2022-11-21T21:46:33.781Z,4.82
2022-11-21T21:49:00.253Z,4.83
2022-11-21T21:51:29.032Z,4.78
2022-11-21T21:53:56.856Z,4.81
2022-11-21T21:56:25.084Z,4.80
2022-11-21T21:58:51.763Z,4.81
2022-11-21T22:01:23.231Z,4.78
2022-11-21T22:03:54.066Z,4.74
2022-11-21T22:06:20.661Z,4.63
2022-11-21T22:08:48.666Z,4.63
2022-11-21T22:11:27.593Z,4.66
2022-11-21T22:13:56.680Z,4.54
2022-11-21T22:16:23.586Z,4.62
2022-11-21T22:18:50.145Z,4.41
2022-11-21T22:21:19.306Z,4.56
2022-11-21T22:24:17.251Z,4.47
2022-11-21T22:26:33.047Z,4.47
2022-11-21T22:28:59.495Z,4.45
2022-11-21T22:31:26.023Z,4.46
2022-11-21T22:33:52.638Z,4.31
2022-11-21T22:36:19.241Z,4.38
2022-11-21T22:38:46.132Z,4.29
2022-11-21T22:41:20.996Z,4.37
2022-11-21T22:43:52.708Z,4.18
2022-11-21T22:46:20.437Z,4.31
2022-11-21T22:48:47.586Z,4.36
2022-11-21T22:51:15.324Z,4.17
2022-11-21T22:53:41.779Z,4.31
2022-11-21T22:56:11.685Z,4.27
2022-11-21T22:58:40.046Z,4.21
2022-11-21T23:01:18.164Z,4.21
2022-11-21T23:03:44.789Z,4.16
2022-11-21T23:06:14.132Z,3.96
2022-11-21T23:08:41.647Z,4.09
2022-11-21T23:11:12.651Z,4.10
2022-11-21T23:13:40.857Z,4.04
2022-11-21T23:16:07.959Z,4.04
2022-11-21T23:18:35.305Z,4.03
2022-11-21T23:21:03.049Z,4.00
2022-11-21T23:23:30.621Z,3.97
2022-11-21T23:25:57.175Z,3.99
2022-11-21T23:28:23.818Z,3.92
2022-11-21T23:30:50.495Z,3.91
2022-11-21T23:33:17.335Z,3.86
2022-11-21T23:35:45.189Z,3.87
2022-11-21T23:38:12.937Z,3.90
2022-11-21T23:40:39.420Z,3.78
2022-11-21T23:43:05.965Z,3.86
2022-11-21T23:45:32.975Z,3.82
2022-11-21T23:47:59.425Z,3.87
2022-11-21T23:50:25.901Z,3.84
2022-11-21T23:52:52.408Z,3.63
2022-11-21T23:55:19.129Z,3.83
2022-11-21T23:57:49.530Z,3.82
